createdAt,value
2022-11-28T00:01:36.084Z,100453.69
2022-11-28T00:04:04.684Z,100452.28
2022-11-28T00:06:33.174Z,100444.84
2022-11-28T00:09:01.460Z,100441.63
2022-11-28T00:11:29.709Z,100440.81
2022-11-28T00:13:57.611Z,100434.31
2022-11-28T00:16:27.212Z,100421.94
2022-11-28T00:18:56.090Z,100426.09
2022-11-28T00:21:24.865Z,100419.22
2022-11-28T00:23:52.947Z,100422.00
2022-11-28T00:26:24.873Z,100428.41
2022-11-28T00:28:53.316Z,100414.19
2022-11-28T00:31:23.002Z,100415.00
2022-11-28T00:33:52.495Z,100421.09
2022-11-28T00:36:21.491Z,100424.72
2022-11-28T00:38:50.062Z,100422.78
2022-11-28T00:41:19.603Z,100424.50
2022-11-28T00:43:48.591Z,100423.63
2022-11-28T00:46:18.230Z,100423.13
2022-11-28T00:48:46.592Z,100415.97
2022-11-28T00:51:17.556Z,100416.88
2022-11-28T00:53:47.852Z,100422.78
2022-11-28T00:56:19.213Z,100420.44
2022-11-28T00:58:49.497Z,100421.09
2022-11-28T01:01:19.548Z,100413.44
2022-11-28T01:03:49.130Z,100415.47
2022-11-28T01:06:23.584Z,100417.09
2022-11-28T01:08:51.683Z,100416.28
2022-11-28T01:11:19.898Z,100423.16
2022-11-28T01:13:48.356Z,100413.66
2022-11-28T01:16:16.903Z,100421.69
2022-11-28T01:18:44.905Z,100419.88
2022-11-28T01:21:13.074Z,100416.22
2022-11-28T01:23:42.392Z,100422.66
2022-11-28T01:26:12.801Z,100413.28
2022-11-28T01:28:40.705Z,100412.38
2022-11-28T01:31:11.423Z,100418.25
2022-11-28T01:33:39.426Z,100416.78
2022-11-28T01:36:07.991Z,100413.47
2022-11-28T01:38:36.113Z,100406.94
2022-11-28T01:41:06.822Z,100394.38
2022-11-28T01:43:35.527Z,100394.72
2022-11-28T01:46:04.352Z,100398.19
2022-11-28T01:48:34.308Z,100400.00
2022-11-28T01:51:06.643Z,100390.28
2022-11-28T01:53:36.382Z,100383.84
2022-11-28T01:56:07.862Z,100376.53
2022-11-28T01:58:36.240Z,100363.94
2022-11-28T02:01:05.146Z,100358.22
2022-11-28T02:03:37.081Z,100363.03
2022-11-28T02:06:05.718Z,100362.59
2022-11-28T02:08:33.907Z,100371.53
2022-11-28T02:11:13.810Z,100363.63
2022-11-28T02:13:47.298Z,100363.84
2022-11-28T02:16:35.010Z,100339.91
2022-11-28T02:19:17.238Z,100330.97
2022-11-28T02:21:53.330Z,100321.69
2022-11-28T02:24:43.012Z,100322.47
2022-11-28T02:27:52.953Z,100336.69
2022-11-28T02:30:22.481Z,100348.91
2022-11-28T02:33:06.113Z,100348.13
2022-11-28T02:35:36.995Z,100342.72
2022-11-28T02:38:12.341Z,100337.25
2022-11-28T02:40:49.988Z,100335.97
2022-11-28T02:43:23.238Z,100332.09
2022-11-28T02:45:55.171Z,100338.97
2022-11-28T02:48:28.441Z,100329.03
2022-11-28T02:51:02.873Z,100326.16
2022-11-28T02:53:32.820Z,100327.19
2022-11-28T02:56:01.352Z,100316.44
2022-11-28T02:58:29.521Z,100308.75
2022-11-28T03:00:58.283Z,100319.28
2022-11-28T03:03:39.342Z,100314.03
2022-11-28T03:06:14.185Z,100306.69
2022-11-28T03:08:53.296Z,100313.44
2022-11-28T03:11:24.937Z,100299.09
2022-11-28T03:13:55.543Z,100312.72
2022-11-28T03:16:28.542Z,100307.31
2022-11-28T03:19:04.646Z,100304.19
2022-11-28T03:21:39.794Z,100300.19
2022-11-28T03:24:12.055Z,100292.03
2022-11-28T03:26:45.447Z,100296.63
2022-11-28T03:29:17.176Z,100294.44
2022-11-28T03:31:50.117Z,100291.00
2022-11-28T03:34:21.907Z,100299.91
2022-11-28T03:36:53.616Z,100301.28
2022-11-28T03:39:24.041Z,100300.41
2022-11-28T03:41:55.237Z,100297.94
2022-11-28T03:44:27.731Z,100297.22
2022-11-28T03:46:57.920Z,100296.94
2022-11-28T03:49:30.458Z,100293.72
2022-11-28T03:52:01.779Z,100292.09
2022-11-28T03:54:33.577Z,100296.94
2022-11-28T03:57:07.756Z,100300.34
2022-11-28T03:59:37.389Z,100296.94
2022-11-28T04:02:11.094Z,100292.47
2022-11-28T04:04:47.349Z,100297.66
2022-11-28T04:07:23.211Z,100300.44
2022-11-28T04:09:57.505Z,100303.19
2022-11-28T04:12:32.705Z,100288.59
2022-11-28T04:15:03.429Z,100295.00
2022-11-28T04:17:34.113Z,100288.16
2022-11-28T04:20:07.328Z,100288.28
2022-11-28T04:22:36.826Z,100289.06
2022-11-28T04:25:08.279Z,100284.63
2022-11-28T04:27:38.743Z,100288.84
2022-11-28T04:30:08.744Z,100303.84
2022-11-28T04:32:39.212Z,100297.78
2022-11-28T04:35:11.546Z,100297.19
2022-11-28T04:37:40.591Z,100300.63
2022-11-28T04:40:10.260Z,100309.91
2022-11-28T04:42:41.297Z,100296.97
2022-11-28T04:45:12.658Z,100295.97
2022-11-28T04:47:40.737Z,100295.97
2022-11-28T04:50:11.103Z,100289.28
2022-11-28T04:52:43.891Z,100294.56
2022-11-28T04:55:16.675Z,100292.50
2022-11-28T04:57:47.101Z,100290.00
2022-11-28T05:00:17.574Z,100290.00
2022-11-28T05:02:47.411Z,100285.56
2022-11-28T05:05:21.814Z,100281.66
2022-11-28T05:07:50.304Z,100283.84
2022-11-28T05:10:19.287Z,100282.25
2022-11-28T05:12:47.193Z,100282.72
2022-11-28T05:15:18.907Z,100278.44
2022-11-28T05:17:47.542Z,100265.75
2022-11-28T05:20:17.138Z,100287.25
2022-11-28T05:22:45.066Z,100277.75
2022-11-28T05:25:13.257Z,100281.16
2022-11-28T05:27:41.165Z,100278.53
2022-11-28T05:30:11.639Z,100279.34
2022-11-28T05:32:40.050Z,100275.13
2022-11-28T05:35:09.104Z,100256.47
2022-11-28T05:37:41.682Z,100258.88
2022-11-28T05:40:10.757Z,100264.16
2022-11-28T05:42:38.812Z,100260.47
2022-11-28T05:45:07.884Z,100244.91
2022-11-28T05:47:35.809Z,100265.75
2022-11-28T05:50:04.447Z,100252.59
2022-11-28T05:52:32.499Z,100254.53
2022-11-28T05:55:02.470Z,100260.19
2022-11-28T05:57:32.474Z,100260.66
2022-11-28T06:00:00.712Z,100265.47
2022-11-28T06:02:28.671Z,100251.63
2022-11-28T06:04:57.555Z,100247.34
2022-11-28T06:07:25.591Z,100244.16
2022-11-28T06:09:55.157Z,100255.38
2022-11-28T06:12:24.469Z,100238.72
2022-11-28T06:14:52.603Z,100254.63
2022-11-28T06:17:20.583Z,100247.47
2022-11-28T06:19:48.915Z,100251.81
2022-11-28T06:22:16.836Z,100244.06
2022-11-28T06:24:44.987Z,100245.81
2022-11-28T06:27:12.946Z,100239.84
2022-11-28T06:29:42.698Z,100241.81
2022-11-28T06:32:11.038Z,100248.25
2022-11-28T06:34:39.262Z,100256.69
2022-11-28T06:37:07.160Z,100273.31
2022-11-28T06:39:35.306Z,100268.41
2022-11-28T06:42:03.572Z,100276.88
2022-11-28T06:44:31.916Z,100270.00
2022-11-28T06:47:01.182Z,100274.47
2022-11-28T06:49:29.301Z,100270.19
2022-11-28T06:51:57.329Z,100269.75
2022-11-28T06:54:25.554Z,100265.06
2022-11-28T06:56:53.538Z,100265.75
2022-11-28T06:59:21.832Z,100257.41
2022-11-28T07:01:50.034Z,100258.56
2022-11-28T07:04:19.584Z,100279.19
2022-11-28T07:06:47.492Z,100280.88
2022-11-28T07:09:15.626Z,100282.38
2022-11-28T07:11:43.940Z,100273.88
2022-11-28T07:14:12.222Z,100280.03
2022-11-28T07:16:40.165Z,100285.44
2022-11-28T07:19:08.455Z,100290.56
2022-11-28T07:21:37.744Z,100284.41
2022-11-28T07:24:06.417Z,100279.84
2022-11-28T07:26:37.744Z,100281.56
2022-11-28T07:29:07.293Z,100278.47
2022-11-28T07:31:35.274Z,100285.16
2022-11-28T07:34:04.081Z,100284.19
2022-11-28T07:36:32.649Z,100289.00
2022-11-28T07:39:03.795Z,100289.38
2022-11-28T07:41:31.828Z,100289.72
2022-11-28T07:44:01.569Z,100285.03
2022-11-28T07:46:30.927Z,100284.59
2022-11-28T07:48:59.274Z,100276.81
2022-11-28T07:51:29.298Z,100288.38
2022-11-28T07:53:57.725Z,100282.41
2022-11-28T07:56:39.323Z,100286.97
2022-11-28T07:59:08.281Z,100280.44
2022-11-28T08:01:37.209Z,100275.53
2022-11-28T08:04:07.530Z,100280.34
2022-11-28T08:06:37.903Z,100274.06
2022-11-28T08:09:07.349Z,100271.53
2022-11-28T08:11:36.710Z,100278.06
2022-11-28T08:14:05.145Z,100274.31
2022-11-28T08:16:33.120Z,100274.66
2022-11-28T08:19:02.028Z,100278.91
2022-11-28T08:21:31.587Z,100274.75
2022-11-28T08:24:01.067Z,100271.13
2022-11-28T08:26:30.986Z,100274.09
2022-11-28T08:29:00.905Z,100277.06
2022-11-28T08:31:30.502Z,100285.09
2022-11-28T08:34:00.427Z,100281.78
2022-11-28T08:36:29.542Z,100279.25
2022-11-28T08:39:16.546Z,100283.72
2022-11-28T08:41:46.132Z,100280.84
2022-11-28T08:44:16.062Z,100283.03
2022-11-28T08:46:44.697Z,100277.19
2022-11-28T08:49:13.039Z,100284.84
2022-11-28T08:51:41.035Z,100282.00
2022-11-28T08:54:09.270Z,100289.34
2022-11-28T08:56:37.339Z,100285.31
2022-11-28T08:59:07.064Z,100292.31
2022-11-28T09:01:36.438Z,100281.78
2022-11-28T09:04:07.772Z,100285.44
2022-11-28T09:06:36.643Z,100286.34
2022-11-28T09:09:05.491Z,100296.88
2022-11-28T09:11:34.061Z,100292.53
2022-11-28T09:14:02.252Z,100290.66
2022-11-28T09:16:30.197Z,100288.38
2022-11-28T09:18:59.715Z,100298.13
2022-11-28T09:21:27.845Z,100286.66
2022-11-28T09:23:56.974Z,100295.84
2022-11-28T09:26:25.868Z,100290.03
2022-11-28T09:28:54.404Z,100292.75
2022-11-28T09:31:22.859Z,100281.78
2022-11-28T09:33:51.164Z,100276.63
2022-11-28T09:36:22.981Z,100281.56
2022-11-28T09:38:51.709Z,100288.41
2022-11-28T09:41:30.592Z,100284.97
2022-11-28T09:44:01.814Z,100288.06
2022-11-28T09:46:32.770Z,100281.75
2022-11-28T09:49:04.927Z,100287.72
2022-11-28T09:51:36.972Z,100281.63
2022-11-28T09:54:10.745Z,100279.25
2022-11-28T09:56:39.060Z,100280.41
2022-11-28T09:59:14.079Z,100280.50
2022-11-28T10:01:47.608Z,100287.47
2022-11-28T10:04:19.853Z,100283.84
2022-11-28T10:06:54.035Z,100279.91
2022-11-28T10:09:32.842Z,100286.00
2022-11-28T10:12:09.217Z,100271.88
2022-11-28T10:14:51.904Z,100271.53
2022-11-28T10:17:25.999Z,100268.41
2022-11-28T10:19:57.465Z,100270.81
2022-11-28T10:22:32.274Z,100273.69
2022-11-28T10:25:06.259Z,100273.47
2022-11-28T10:27:36.197Z,100278.44
2022-11-28T10:30:07.753Z,100283.13
2022-11-28T10:32:39.721Z,100283.91
2022-11-28T10:35:11.462Z,100293.44
2022-11-28T10:37:40.949Z,100286.56
2022-11-28T10:40:19.159Z,100281.16
2022-11-28T10:42:52.124Z,100277.38
2022-11-28T10:45:27.560Z,100277.25
2022-11-28T10:48:37.880Z,100279.66
2022-11-28T10:51:05.713Z,100275.50
2022-11-28T10:53:42.845Z,100273.44
2022-11-28T10:56:19.001Z,100274.56
2022-11-28T10:58:52.924Z,100280.97
2022-11-28T11:01:21.509Z,100270.88
2022-11-28T11:03:49.742Z,100271.84
2022-11-28T11:06:17.881Z,100257.69
2022-11-28T11:08:48.791Z,100260.56
2022-11-28T11:11:25.491Z,100254.00
2022-11-28T11:13:59.779Z,100246.66
2022-11-28T11:16:48.524Z,100248.91
2022-11-28T11:19:27.076Z,100247.19
2022-11-28T11:22:00.790Z,100242.22
2022-11-28T11:24:30.284Z,100247.84
2022-11-28T11:27:08.526Z,100244.50
2022-11-28T11:29:38.252Z,100243.69
2022-11-28T11:32:07.845Z,100246.88
2022-11-28T11:34:39.302Z,100227.91
2022-11-28T11:37:30.215Z,100230.91
2022-11-28T11:40:00.100Z,100230.97
2022-11-28T11:42:30.117Z,100232.34
2022-11-28T11:45:28.695Z,100230.25
2022-11-28T11:47:57.173Z,100234.50
2022-11-28T11:50:27.354Z,100233.94
2022-11-28T11:53:07.957Z,100235.78
2022-11-28T11:55:44.362Z,100222.25
2022-11-28T11:58:14.815Z,100226.28
2022-11-28T12:00:45.668Z,100225.63
2022-11-28T12:03:21.039Z,100226.41
2022-11-28T12:06:14.151Z,100220.66
2022-11-28T12:08:44.761Z,100219.69
2022-11-28T12:11:16.201Z,100221.13
2022-11-28T12:13:44.721Z,100217.31
2022-11-28T12:16:26.504Z,100214.75
2022-11-28T12:19:00.563Z,100210.91
2022-11-28T12:21:34.670Z,100210.72
2022-11-28T12:24:09.726Z,100206.34
2022-11-28T12:26:43.413Z,100204.00
2022-11-28T12:29:33.557Z,100206.72
2022-11-28T12:32:13.909Z,100203.53
2022-11-28T12:34:49.849Z,100205.69
2022-11-28T12:37:42.051Z,100201.44
2022-11-28T12:40:23.467Z,100202.97
2022-11-28T12:43:02.667Z,100207.09
2022-11-28T12:45:38.191Z,100201.28
2022-11-28T12:48:18.283Z,100199.19
2022-11-28T12:50:48.337Z,100198.16
2022-11-28T12:53:30.726Z,100204.25
2022-11-28T12:56:07.210Z,100198.72
2022-11-28T12:58:38.145Z,100197.09
2022-11-28T13:01:19.848Z,100199.25
2022-11-28T13:03:57.810Z,100192.47
2022-11-28T13:06:35.022Z,100195.19
2022-11-28T13:09:22.228Z,100198.13
2022-11-28T13:11:57.856Z,100197.41
2022-11-28T13:14:33.450Z,100195.63
2022-11-28T13:17:08.597Z,100196.72
2022-11-28T13:19:44.115Z,100190.16
2022-11-28T13:22:14.714Z,100185.41
2022-11-28T13:24:49.718Z,100176.97
2022-11-28T13:27:23.387Z,100176.53
2022-11-28T13:30:00.087Z,100178.41
2022-11-28T13:32:32.140Z,100182.41
2022-11-28T13:35:01.493Z,100183.22
2022-11-28T13:40:25.665Z,100182.97
2022-11-28T13:43:13.674Z,100180.00
2022-11-28T13:45:42.966Z,100175.53
2022-11-28T13:51:34.278Z,100175.03
2022-11-28T13:54:36.236Z,100177.75
2022-11-28T13:57:09.489Z,100180.38
2022-11-28T13:59:38.352Z,100168.75
2022-11-28T14:02:19.537Z,100170.38
2022-11-28T14:04:48.439Z,100165.06
2022-11-28T14:07:25.066Z,100164.03
2022-11-28T14:10:02.350Z,100173.56
2022-11-28T14:12:34.035Z,100162.19
2022-11-28T14:15:15.842Z,100168.81
2022-11-28T14:17:55.687Z,100168.31
2022-11-28T14:20:29.106Z,100168.88
2022-11-28T14:23:11.976Z,100169.38
2022-11-28T14:25:42.291Z,100169.38
2022-11-28T14:28:20.445Z,100170.97
2022-11-28T14:30:50.007Z,100173.06
2022-11-28T14:33:21.502Z,100177.56
2022-11-28T14:36:23.141Z,100175.16
2022-11-28T14:39:06.303Z,100183.03
2022-11-28T14:42:57.771Z,100175.59
2022-11-28T14:45:43.459Z,100177.63
2022-11-28T14:48:18.183Z,100181.31
2022-11-28T14:50:54.556Z,100181.31
2022-11-28T14:53:48.006Z,100181.31
2022-11-28T14:56:27.506Z,100176.53
2022-11-28T14:59:01.816Z,100179.09
2022-11-28T15:01:39.668Z,100181.19
2022-11-28T15:04:29.407Z,100189.84
2022-11-28T15:06:59.117Z,100186.91
2022-11-28T15:09:32.472Z,100191.63
2022-11-28T15:12:11.373Z,100187.81
2022-11-28T15:14:41.064Z,100185.25
2022-11-28T15:17:13.061Z,100187.50
2022-11-28T15:19:46.071Z,100185.84
2022-11-28T15:22:32.591Z,100189.44
2022-11-28T15:25:00.848Z,100190.41
2022-11-28T15:27:30.965Z,100188.66
2022-11-28T15:30:00.824Z,100198.00
2022-11-28T15:32:31.400Z,100190.38
2022-11-28T15:35:10.865Z,100209.25
2022-11-28T15:37:48.446Z,100207.47
2022-11-28T15:40:21.473Z,100204.75
2022-11-28T15:42:51.425Z,100209.81
2022-11-28T15:45:25.568Z,100204.53
2022-11-28T15:47:55.053Z,100202.94
2022-11-28T15:50:25.148Z,100206.53
2022-11-28T15:52:55.040Z,100207.06
2022-11-28T15:55:23.850Z,100210.28
2022-11-28T15:57:53.121Z,100206.59
2022-11-28T16:00:30.400Z,100208.78
2022-11-28T16:02:58.370Z,100213.38
2022-11-28T16:05:27.358Z,100210.03
2022-11-28T16:07:55.466Z,100209.56
2022-11-28T16:10:26.029Z,100209.22
2022-11-28T16:13:00.661Z,100213.25
2022-11-28T16:15:29.763Z,100212.09
2022-11-28T16:17:57.860Z,100214.50
2022-11-28T16:20:28.632Z,100217.03
2022-11-28T16:23:02.494Z,100217.16
2022-11-28T16:25:31.204Z,100209.81
2022-11-28T16:28:00.686Z,100216.25
2022-11-28T16:30:34.585Z,100219.47
2022-11-28T16:33:02.722Z,100223.13
2022-11-28T16:35:32.028Z,100217.84
2022-11-28T16:38:10.075Z,100224.75
2022-11-28T16:40:38.438Z,100223.13
2022-11-28T16:43:20.553Z,100215.78
2022-11-28T16:45:58.265Z,100225.78
2022-11-28T16:48:28.720Z,100223.13
2022-11-28T16:51:33.824Z,100225.06
2022-11-28T16:54:03.570Z,100229.56
2022-11-28T16:56:44.533Z,100235.44
2022-11-28T16:59:15.832Z,100226.59
2022-11-28T17:01:46.188Z,100227.41
2022-11-28T17:04:21.917Z,100231.19
2022-11-28T17:06:50.617Z,100224.34
2022-11-28T17:09:18.755Z,100227.91
2022-11-28T17:11:50.208Z,100225.72
2022-11-28T17:14:19.539Z,100224.13
2022-11-28T17:16:47.736Z,100224.59
2022-11-28T17:19:15.973Z,100225.72
2022-11-28T17:21:46.278Z,100231.34
2022-11-28T17:24:18.807Z,100234.41
2022-11-28T17:26:47.233Z,100226.59
2022-11-28T17:29:15.857Z,100223.00
2022-11-28T17:31:46.787Z,100222.31
2022-11-28T17:34:17.230Z,100226.44
2022-11-28T17:36:45.617Z,100224.38
2022-11-28T17:39:13.727Z,100226.53
2022-11-28T17:41:42.882Z,100223.91
2022-11-28T17:44:16.559Z,100223.31
2022-11-28T17:46:46.170Z,100233.41
2022-11-28T17:49:14.452Z,100222.38
2022-11-28T17:51:44.374Z,100218.22
2022-11-28T17:54:14.003Z,100216.16
2022-11-28T17:56:42.486Z,100225.19
2022-11-28T17:59:11.293Z,100226.25
2022-11-28T18:01:40.033Z,100219.66
2022-11-28T18:04:09.424Z,100214.16
2022-11-28T18:06:37.870Z,100224.81
2022-11-28T18:09:11.623Z,100224.31
2022-11-28T18:11:40.600Z,100225.13
2022-11-28T18:14:09.946Z,100224.81
2022-11-28T18:16:40.099Z,100224.81
2022-11-28T18:19:09.693Z,100221.59
2022-11-28T18:21:38.802Z,100229.47
2022-11-28T18:24:07.387Z,100224.38
2022-11-28T18:26:36.541Z,100226.72
2022-11-28T18:29:04.986Z,100230.06
2022-11-28T18:31:34.328Z,100237.09
2022-11-28T18:34:04.135Z,100233.22
2022-11-28T18:36:38.876Z,100229.56
2022-11-28T18:39:10.092Z,100244.97
2022-11-28T18:41:39.826Z,100238.88
2022-11-28T18:44:09.190Z,100232.81
2022-11-28T18:46:37.378Z,100238.00
2022-11-28T18:49:05.869Z,100235.84
2022-11-28T18:51:36.863Z,100241.00
2022-11-28T18:54:06.681Z,100244.09
2022-11-28T18:56:36.476Z,100238.38
2022-11-28T18:59:04.621Z,100245.47
2022-11-28T19:01:34.891Z,100244.09
2022-11-28T19:04:07.870Z,100237.69
2022-11-28T19:06:39.830Z,100237.22
2022-11-28T19:09:10.592Z,100240.44
2022-11-28T19:11:39.121Z,100234.56
2022-11-28T19:14:08.937Z,100241.56
2022-11-28T19:16:38.817Z,100237.91
2022-11-28T19:19:07.457Z,100244.88
2022-11-28T19:21:38.512Z,100238.53
2022-11-28T19:24:08.683Z,100240.16
2022-11-28T19:26:38.173Z,100239.69
2022-11-28T19:29:07.062Z,100235.47
2022-11-28T19:31:37.345Z,100234.88
2022-11-28T19:34:07.559Z,100238.41
2022-11-28T19:36:40.641Z,100231.41
2022-11-28T19:39:09.131Z,100239.78
2022-11-28T19:41:38.297Z,100239.66
2022-11-28T19:44:06.407Z,100245.59
2022-11-28T19:46:35.847Z,100241.41
2022-11-28T19:49:05.555Z,100242.56
2022-11-28T19:51:35.233Z,100242.09
2022-11-28T19:54:05.131Z,100219.63
2022-11-28T19:56:34.891Z,100249.78
2022-11-28T19:59:03.300Z,100246.88
2022-11-28T20:01:31.936Z,100244.81
2022-11-28T20:04:00.409Z,100246.88
2022-11-28T20:06:30.489Z,100250.94
2022-11-28T20:09:00.500Z,100256.00
2022-11-28T20:11:33.360Z,100252.09
2022-11-28T20:14:02.704Z,100248.38
2022-11-28T20:16:32.369Z,100257.38
2022-11-28T20:19:01.386Z,100246.22
2022-11-28T20:21:31.780Z,100261.06
2022-11-28T20:24:04.167Z,100257.84
2022-11-28T20:26:35.742Z,100254.72
2022-11-28T20:29:04.941Z,100257.94
2022-11-28T20:31:36.409Z,100264.81
2022-11-28T20:34:05.965Z,100268.50
2022-11-28T20:36:35.166Z,100269.75
2022-11-28T20:39:03.975Z,100268.97
2022-11-28T20:41:33.981Z,100274.69
2022-11-28T20:44:02.237Z,100274.69
2022-11-28T20:46:32.650Z,100275.19
2022-11-28T20:49:02.328Z,100272.28
2022-11-28T20:51:31.982Z,100276.56
2022-11-28T20:54:00.812Z,100276.81
2022-11-28T20:56:30.591Z,100274.63
2022-11-28T20:59:00.614Z,100277.28
2022-11-28T21:01:30.407Z,100277.97
2022-11-28T21:03:58.365Z,100274.97
2022-11-28T21:06:26.689Z,100273.88
2022-11-28T21:08:54.654Z,100276.84
2022-11-28T21:11:55.198Z,100281.41
2022-11-28T21:14:15.102Z,100287.84
2022-11-28T21:16:43.754Z,100283.66
2022-11-28T21:19:12.376Z,100285.84
2022-11-28T21:21:42.699Z,100285.94
2022-11-28T21:24:13.641Z,100292.84
2022-11-28T21:26:46.606Z,100282.72
2022-11-28T21:29:18.910Z,100277.91
2022-11-28T21:31:47.508Z,100286.88
2022-11-28T21:34:16.784Z,100280.47
2022-11-28T21:36:45.890Z,100286.41
2022-11-28T21:39:15.785Z,100291.22
2022-11-28T21:41:43.979Z,100284.91
2022-11-28T21:44:11.920Z,100283.63
2022-11-28T21:46:41.444Z,100283.97
2022-11-28T21:49:09.641Z,100285.56
2022-11-28T21:51:41.427Z,100287.19
2022-11-28T21:54:10.722Z,100282.66
2022-11-28T21:56:39.155Z,100288.19
2022-11-28T21:59:07.267Z,100284.97
2022-11-28T22:01:35.529Z,100289.47
2022-11-28T22:04:06.109Z,100287.06
2022-11-28T22:06:34.407Z,100288.09
2022-11-28T22:09:09.190Z,100285.47
2022-11-28T22:11:39.831Z,100291.78
2022-11-28T22:14:08.060Z,100296.50
2022-11-28T22:16:36.743Z,100296.50
2022-11-28T22:19:06.500Z,100301.78
2022-11-28T22:21:54.364Z,100295.25
2022-11-28T22:24:24.406Z,100296.03
2022-11-28T22:26:53.649Z,100297.16
2022-11-28T22:29:21.564Z,100299.81
2022-11-28T22:31:50.401Z,100300.38
2022-11-28T22:34:20.645Z,100298.28
2022-11-28T22:36:49.571Z,100296.69
2022-11-28T22:39:17.558Z,100297.50
2022-11-28T22:41:45.741Z,100300.38
2022-11-28T22:44:14.032Z,100301.16
2022-11-28T22:46:42.205Z,100293.94
2022-11-28T22:49:11.598Z,100309.31
2022-11-28T22:51:41.402Z,100305.66
2022-11-28T22:54:12.778Z,100309.31
2022-11-28T22:56:41.338Z,100309.31
2022-11-28T22:59:12.813Z,100314.59
2022-11-28T23:01:41.508Z,100317.50
2022-11-28T23:04:09.983Z,100313.81
2022-11-28T23:06:38.538Z,100313.00
2022-11-28T23:09:09.323Z,100319.88
2022-11-28T23:11:39.269Z,100311.97
2022-11-28T23:14:07.599Z,100307.72
2022-11-28T23:16:37.225Z,100320.13
2022-11-28T23:19:08.641Z,100309.81
2022-11-28T23:21:38.836Z,100314.03
2022-11-28T23:24:08.994Z,100318.53
2022-11-28T23:26:37.395Z,100307.72
2022-11-28T23:29:06.358Z,100315.66
2022-11-28T23:31:37.889Z,100316.22
2022-11-28T23:34:06.575Z,100312.53
2022-11-28T23:36:41.782Z,100318.88
2022-11-28T23:39:13.360Z,100310.94
2022-11-28T23:41:41.796Z,100313.81
2022-11-28T23:44:11.145Z,100314.59
2022-11-28T23:46:39.703Z,100308.53
2022-11-28T23:49:07.968Z,100312.53
2022-11-28T23:51:36.185Z,100319.41
2022-11-28T23:54:04.463Z,100318.41
2022-11-28T23:56:35.823Z,100318.16
2022-11-28T23:59:05.944Z,100318.97
